sensor_id;sensor_type;location;lat;lon;timestamp;P1;durP1;ratioP1;P2;durP2;ratioP2
72273;SDS011;60208;48.692;8.948;2022-11-15T00:01:30;11.90;;;6.78;;
72273;SDS011;60208;48.692;8.948;2022-11-15T00:03:55;9.35;;;6.28;;
72273;SDS011;60208;48.692;8.948;2022-11-15T00:06:20;10.68;;;7.22;;
72273;SDS011;60208;48.692;8.948;2022-11-15T00:08:46;10.98;;;7.15;;
72273;SDS011;60208;48.692;8.948;2022-11-15T00:11:12;13.70;;;6.60;;
72273;SDS011;60208;48.692;8.948;2022-11-15T00:13:37;10.73;;;6.03;;
72273;SDS011;60208;48.692;8.948;2022-11-15T00:16:03;10.57;;;6.18;;
72273;SDS011;60208;48.692;8.948;2022-11-15T00:18:29;9.85;;;5.70;;
72273;SDS011;60208;48.692;8.948;2022-11-15T00:20:55;9.00;;;5.95;;
72273;SDS011;60208;48.692;8.948;2022-11-15T00:23:21;8.82;;;5.40;;
72273;SDS011;60208;48.692;8.948;2022-11-15T00:25:47;8.48;;;4.78;;
72273;SDS011;60208;48.692;8.948;2022-11-15T00:28:12;9.93;;;5.13;;
72273;SDS011;60208;48.692;8.948;2022-11-15T00:30:38;8.80;;;5.20;;
72273;SDS011;60208;48.692;8.948;2022-11-15T00:33:03;8.98;;;5.45;;
72273;SDS011;60208;48.692;8.948;2022-11-15T00:35:31;8.75;;;4.90;;
72273;SDS011;60208;48.692;8.948;2022-11-15T00:37:58;7.03;;;4.78;;
72273;SDS011;60208;48.692;8.948;2022-11-15T00:40:23;5.88;;;4.00;;
72273;SDS011;60208;48.692;8.948;2022-11-15T00:42:48;6.72;;;4.00;;
72273;SDS011;60208;48.692;8.948;2022-11-15T00:45:14;6.22;;;4.00;;
72273;SDS011;60208;48.692;8.948;2022-11-15T00:47:39;5.88;;;4.07;;
72273;SDS011;60208;48.692;8.948;2022-11-15T00:50:04;6.20;;;4.25;;
72273;SDS011;60208;48.692;8.948;2022-11-15T00:52:30;6.65;;;4.38;;
72273;SDS011;60208;48.692;8.948;2022-11-15T00:54:55;7.50;;;4.20;;
72273;SDS011;60208;48.692;8.948;2022-11-15T00:57:21;10.70;;;4.90;;
72273;SDS011;60208;48.692;8.948;2022-11-15T00:59:46;9.38;;;5.28;;
72273;SDS011;60208;48.692;8.948;2022-11-15T01:02:11;6.85;;;4.60;;
72273;SDS011;60208;48.692;8.948;2022-11-15T01:04:37;7.43;;;4.63;;
72273;SDS011;60208;48.692;8.948;2022-11-15T01:07:02;5.93;;;4.40;;
72273;SDS011;60208;48.692;8.948;2022-11-15T01:09:27;8.15;;;3.75;;
72273;SDS011;60208;48.692;8.948;2022-11-15T01:11:53;5.60;;;3.75;;
72273;SDS011;60208;48.692;8.948;2022-11-15T01:14:18;6.43;;;3.95;;
72273;SDS011;60208;48.692;8.948;2022-11-15T01:16:43;7.38;;;4.60;;
72273;SDS011;60208;48.692;8.948;2022-11-15T01:19:09;7.95;;;3.90;;
72273;SDS011;60208;48.692;8.948;2022-11-15T01:21:34;5.85;;;4.20;;
72273;SDS011;60208;48.692;8.948;2022-11-15T01:23:59;6.05;;;4.20;;
72273;SDS011;60208;48.692;8.948;2022-11-15T01:26:25;6.85;;;4.32;;
72273;SDS011;60208;48.692;8.948;2022-11-15T01:28:51;5.82;;;4.00;;
72273;SDS011;60208;48.692;8.948;2022-11-15T01:31:18;6.95;;;4.30;;
72273;SDS011;60208;48.692;8.948;2022-11-15T01:33:45;7.45;;;4.10;;
72273;SDS011;60208;48.692;8.948;2022-11-15T01:36:12;7.28;;;4.38;;
72273;SDS011;60208;48.692;8.948;2022-11-15T01:38:39;7.20;;;4.25;;
72273;SDS011;60208;48.692;8.948;2022-11-15T01:41:04;7.00;;;4.05;;
72273;SDS011;60208;48.692;8.948;2022-11-15T01:43:31;5.07;;;3.97;;
72273;SDS011;60208;48.692;8.948;2022-11-15T01:46:02;8.27;;;4.03;;
72273;SDS011;60208;48.692;8.948;2022-11-15T01:48:31;6.43;;;4.30;;
72273;SDS011;60208;48.692;8.948;2022-11-15T01:51:02;6.57;;;3.80;;
72273;SDS011;60208;48.692;8.948;2022-11-15T01:55:56;7.78;;;3.72;;
72273;SDS011;60208;48.692;8.948;2022-11-15T01:58:22;5.90;;;3.72;;
72273;SDS011;60208;48.692;8.948;2022-11-15T02:00:48;7.03;;;3.92;;
72273;SDS011;60208;48.692;8.948;2022-11-15T02:03:14;5.30;;;3.50;;
72273;SDS011;60208;48.692;8.948;2022-11-15T02:05:40;5.25;;;3.58;;
72273;SDS011;60208;48.692;8.948;2022-11-15T02:08:06;7.38;;;3.75;;
72273;SDS011;60208;48.692;8.948;2022-11-15T02:10:32;4.45;;;3.50;;
72273;SDS011;60208;48.692;8.948;2022-11-15T02:12:57;8.77;;;4.30;;
72273;SDS011;60208;48.692;8.948;2022-11-15T02:15:24;6.38;;;3.92;;
72273;SDS011;60208;48.692;8.948;2022-11-15T02:18:05;6.55;;;4.22;;
72273;SDS011;60208;48.692;8.948;2022-11-15T02:31:45;5.13;;;3.50;;
72273;SDS011;60208;48.692;8.948;2022-11-15T02:39:56;8.13;;;3.88;;
72273;SDS011;60208;48.692;8.948;2022-11-15T02:43:02;4.82;;;3.65;;
72273;SDS011;60208;48.692;8.948;2022-11-15T02:45:47;6.32;;;3.28;;
72273;SDS011;60208;48.692;8.948;2022-11-15T02:48:15;4.80;;;3.58;;
72273;SDS011;60208;48.692;8.948;2022-11-15T02:50:41;5.00;;;3.50;;
72273;SDS011;60208;48.692;8.948;2022-11-15T02:53:08;4.43;;;3.47;;
72273;SDS011;60208;48.692;8.948;2022-11-15T02:55:38;5.63;;;3.90;;
72273;SDS011;60208;48.692;8.948;2022-11-15T03:01:15;5.95;;;3.95;;
72273;SDS011;60208;48.692;8.948;2022-11-15T03:09:03;5.55;;;3.70;;
72273;SDS011;60208;48.692;8.948;2022-11-15T03:11:34;5.97;;;4.32;;
72273;SDS011;60208;48.692;8.948;2022-11-15T03:14:06;5.88;;;3.72;;
72273;SDS011;60208;48.692;8.948;2022-11-15T03:19:07;14.02;;;7.15;;
72273;SDS011;60208;48.692;8.948;2022-11-15T03:21:34;11.48;;;5.88;;
72273;SDS011;60208;48.692;8.948;2022-11-15T03:24:01;9.52;;;5.85;;
72273;SDS011;60208;48.692;8.948;2022-11-15T03:26:29;9.70;;;5.50;;
72273;SDS011;60208;48.692;8.948;2022-11-15T03:28:55;9.93;;;5.10;;
72273;SDS011;60208;48.692;8.948;2022-11-15T03:31:23;14.27;;;6.13;;
72273;SDS011;60208;48.692;8.948;2022-11-15T03:34:11;7.38;;;3.88;;
72273;SDS011;60208;48.692;8.948;2022-11-15T03:36:53;5.27;;;3.37;;
72273;SDS011;60208;48.692;8.948;2022-11-15T03:39:19;6.50;;;3.80;;
72273;SDS011;60208;48.692;8.948;2022-11-15T03:41:49;8.07;;;3.30;;
72273;SDS011;60208;48.692;8.948;2022-11-15T03:47:07;6.53;;;3.40;;
72273;SDS011;60208;48.692;8.948;2022-11-15T03:49:36;5.30;;;3.67;;
72273;SDS011;60208;48.692;8.948;2022-11-15T03:52:04;6.03;;;3.33;;
72273;SDS011;60208;48.692;8.948;2022-11-15T03:54:30;5.85;;;3.50;;
72273;SDS011;60208;48.692;8.948;2022-11-15T03:56:55;4.80;;;3.40;;
72273;SDS011;60208;48.692;8.948;2022-11-15T03:59:22;4.07;;;3.10;;
72273;SDS011;60208;48.692;8.948;2022-11-15T04:01:47;4.40;;;3.55;;
72273;SDS011;60208;48.692;8.948;2022-11-15T04:04:13;10.23;;;3.28;;
72273;SDS011;60208;48.692;8.948;2022-11-15T04:06:38;6.60;;;3.88;;
72273;SDS011;60208;48.692;8.948;2022-11-15T04:09:03;6.88;;;3.75;;
72273;SDS011;60208;48.692;8.948;2022-11-15T04:11:29;8.68;;;3.65;;
72273;SDS011;60208;48.692;8.948;2022-11-15T04:13:54;7.82;;;4.28;;
72273;SDS011;60208;48.692;8.948;2022-11-15T04:16:20;5.15;;;3.22;;
72273;SDS011;60208;48.692;8.948;2022-11-15T04:18:45;5.38;;;3.92;;
72273;SDS011;60208;48.692;8.948;2022-11-15T04:21:30;5.82;;;4.07;;
72273;SDS011;60208;48.692;8.948;2022-11-15T04:24:14;7.63;;;3.22;;
72273;SDS011;60208;48.692;8.948;2022-11-15T04:26:40;8.25;;;3.33;;
72273;SDS011;60208;48.692;8.948;2022-11-15T04:29:05;7.10;;;4.35;;
72273;SDS011;60208;48.692;8.948;2022-11-15T04:31:49;5.68;;;3.50;;
72273;SDS011;60208;48.692;8.948;2022-11-15T04:34:14;6.72;;;3.63;;
72273;SDS011;60208;48.692;8.948;2022-11-15T04:36:39;7.15;;;3.38;;
72273;SDS011;60208;48.692;8.948;2022-11-15T04:39:23;7.15;;;3.58;;
72273;SDS011;60208;48.692;8.948;2022-11-15T04:41:49;4.97;;;3.40;;
72273;SDS011;60208;48.692;8.948;2022-11-15T04:44:14;6.47;;;3.40;;
72273;SDS011;60208;48.692;8.948;2022-11-15T04:46:39;5.55;;;3.45;;
72273;SDS011;60208;48.692;8.948;2022-11-15T04:49:05;4.97;;;3.35;;
72273;SDS011;60208;48.692;8.948;2022-11-15T04:51:30;6.15;;;3.75;;
72273;SDS011;60208;48.692;8.948;2022-11-15T04:53:55;6.80;;;3.20;;
72273;SDS011;60208;48.692;8.948;2022-11-15T04:56:21;5.65;;;3.35;;
72273;SDS011;60208;48.692;8.948;2022-11-15T04:58:48;8.02;;;3.40;;
72273;SDS011;60208;48.692;8.948;2022-11-15T05:01:14;7.45;;;2.78;;
72273;SDS011;60208;48.692;8.948;2022-11-15T05:03:43;8.90;;;3.67;;
72273;SDS011;60208;48.692;8.948;2022-11-15T05:06:27;6.45;;;3.42;;
72273;SDS011;60208;48.692;8.948;2022-11-15T05:08:52;3.63;;;2.90;;
72273;SDS011;60208;48.692;8.948;2022-11-15T05:11:18;6.13;;;3.00;;
72273;SDS011;60208;48.692;8.948;2022-11-15T05:13:43;6.15;;;3.30;;
72273;SDS011;60208;48.692;8.948;2022-11-15T05:16:09;5.95;;;3.38;;
72273;SDS011;60208;48.692;8.948;2022-11-15T05:18:34;4.78;;;3.28;;
72273;SDS011;60208;48.692;8.948;2022-11-15T05:21:03;4.80;;;3.00;;
72273;SDS011;60208;48.692;8.948;2022-11-15T05:23:29;8.95;;;3.10;;
72273;SDS011;60208;48.692;8.948;2022-11-15T05:25:58;4.72;;;3.38;;
72273;SDS011;60208;48.692;8.948;2022-11-15T05:28:24;5.60;;;3.38;;
72273;SDS011;60208;48.692;8.948;2022-11-15T05:30:49;5.75;;;3.30;;
72273;SDS011;60208;48.692;8.948;2022-11-15T05:33:15;6.75;;;3.42;;
72273;SDS011;60208;48.692;8.948;2022-11-15T05:35:41;5.25;;;3.38;;
72273;SDS011;60208;48.692;8.948;2022-11-15T05:38:08;6.57;;;3.80;;
72273;SDS011;60208;48.692;8.948;2022-11-15T05:40:33;6.57;;;3.40;;
72273;SDS011;60208;48.692;8.948;2022-11-15T05:42:59;9.20;;;3.28;;
72273;SDS011;60208;48.692;8.948;2022-11-15T05:45:25;6.78;;;3.40;;
72273;SDS011;60208;48.692;8.948;2022-11-15T05:47:51;6.03;;;3.40;;
72273;SDS011;60208;48.692;8.948;2022-11-15T05:50:18;6.25;;;3.30;;
72273;SDS011;60208;48.692;8.948;2022-11-15T05:52:44;5.70;;;3.28;;
72273;SDS011;60208;48.692;8.948;2022-11-15T05:55:11;6.85;;;3.75;;
72273;SDS011;60208;48.692;8.948;2022-11-15T05:57:36;4.15;;;3.47;;
72273;SDS011;60208;48.692;8.948;2022-11-15T06:00:03;5.70;;;3.88;;
72273;SDS011;60208;48.692;8.948;2022-11-15T06:02:29;6.22;;;3.95;;
72273;SDS011;60208;48.692;8.948;2022-11-15T06:04:54;4.93;;;3.53;;
72273;SDS011;60208;48.692;8.948;2022-11-15T06:07:19;6.22;;;3.50;;
72273;SDS011;60208;48.692;8.948;2022-11-15T06:09:45;6.22;;;3.92;;
72273;SDS011;60208;48.692;8.948;2022-11-15T06:12:10;8.27;;;4.60;;
72273;SDS011;60208;48.692;8.948;2022-11-15T06:14:35;8.93;;;3.75;;
72273;SDS011;60208;48.692;8.948;2022-11-15T06:17:01;8.18;;;4.10;;
72273;SDS011;60208;48.692;8.948;2022-11-15T06:19:27;5.32;;;3.97;;
72273;SDS011;60208;48.692;8.948;2022-11-15T06:21:57;6.93;;;4.57;;
72273;SDS011;60208;48.692;8.948;2022-11-15T06:24:23;8.55;;;4.75;;
72273;SDS011;60208;48.692;8.948;2022-11-15T06:26:48;7.80;;;5.15;;
72273;SDS011;60208;48.692;8.948;2022-11-15T06:29:13;15.60;;;4.82;;
72273;SDS011;60208;48.692;8.948;2022-11-15T06:31:39;10.43;;;4.97;;
72273;SDS011;60208;48.692;8.948;2022-11-15T06:34:04;8.38;;;5.25;;
72273;SDS011;60208;48.692;8.948;2022-11-15T06:36:29;6.47;;;4.70;;
72273;SDS011;60208;48.692;8.948;2022-11-15T06:38:56;7.00;;;4.30;;
72273;SDS011;60208;48.692;8.948;2022-11-15T06:41:21;6.57;;;4.00;;
72273;SDS011;60208;48.692;8.948;2022-11-15T06:43:47;6.60;;;3.88;;
72273;SDS011;60208;48.692;8.948;2022-11-15T06:46:12;10.45;;;4.28;;
72273;SDS011;60208;48.692;8.948;2022-11-15T06:48:37;7.75;;;3.95;;
72273;SDS011;60208;48.692;8.948;2022-11-15T06:51:03;5.70;;;3.72;;
72273;SDS011;60208;48.692;8.948;2022-11-15T06:53:29;5.13;;;3.90;;
72273;SDS011;60208;48.692;8.948;2022-11-15T06:56:04;6.95;;;3.85;;
72273;SDS011;60208;48.692;8.948;2022-11-15T06:58:31;7.60;;;4.35;;
72273;SDS011;60208;48.692;8.948;2022-11-15T07:01:00;6.38;;;3.85;;
72273;SDS011;60208;48.692;8.948;2022-11-15T07:03:26;8.77;;;4.18;;
72273;SDS011;60208;48.692;8.948;2022-11-15T07:05:55;5.60;;;3.92;;
72273;SDS011;60208;48.692;8.948;2022-11-15T07:08:22;9.68;;;4.55;;
72273;SDS011;60208;48.692;8.948;2022-11-15T07:10:48;8.25;;;4.28;;
72273;SDS011;60208;48.692;8.948;2022-11-15T07:13:13;11.13;;;4.45;;
72273;SDS011;60208;48.692;8.948;2022-11-15T07:15:39;8.55;;;4.72;;
72273;SDS011;60208;48.692;8.948;2022-11-15T07:18:04;9.35;;;5.00;;
72273;SDS011;60208;48.692;8.948;2022-11-15T07:20:30;8.73;;;5.32;;
72273;SDS011;60208;48.692;8.948;2022-11-15T07:23:02;17.77;;;7.60;;
72273;SDS011;60208;48.692;8.948;2022-11-15T07:25:28;18.77;;;8.05;;
72273;SDS011;60208;48.692;8.948;2022-11-15T07:27:57;17.75;;;7.28;;
72273;SDS011;60208;48.692;8.948;2022-11-15T07:30:24;9.52;;;4.95;;
72273;SDS011;60208;48.692;8.948;2022-11-15T07:32:56;11.45;;;5.45;;
72273;SDS011;60208;48.692;8.948;2022-11-15T07:35:22;13.27;;;7.25;;
72273;SDS011;60208;48.692;8.948;2022-11-15T07:37:58;15.45;;;8.02;;
72273;SDS011;60208;48.692;8.948;2022-11-15T07:40:25;16.17;;;7.32;;
72273;SDS011;60208;48.692;8.948;2022-11-15T07:42:52;20.42;;;10.68;;
72273;SDS011;60208;48.692;8.948;2022-11-15T07:45:17;24.45;;;12.00;;
72273;SDS011;60208;48.692;8.948;2022-11-15T07:47:46;8.15;;;4.40;;
72273;SDS011;60208;48.692;8.948;2022-11-15T07:50:12;9.15;;;4.20;;
72273;SDS011;60208;48.692;8.948;2022-11-15T07:52:37;12.23;;;4.30;;
72273;SDS011;60208;48.692;8.948;2022-11-15T07:55:03;7.13;;;3.70;;
72273;SDS011;60208;48.692;8.948;2022-11-15T07:57:29;5.75;;;3.47;;
72273;SDS011;60208;48.692;8.948;2022-11-15T07:59:54;10.55;;;3.75;;
72273;SDS011;60208;48.692;8.948;2022-11-15T08:02:19;8.50;;;3.70;;
72273;SDS011;60208;48.692;8.948;2022-11-15T08:04:45;6.50;;;3.53;;
72273;SDS011;60208;48.692;8.948;2022-11-15T08:07:10;8.55;;;3.58;;
72273;SDS011;60208;48.692;8.948;2022-11-15T08:09:36;7.07;;;3.63;;
72273;SDS011;60208;48.692;8.948;2022-11-15T08:12:01;6.03;;;3.50;;
72273;SDS011;60208;48.692;8.948;2022-11-15T08:14:26;5.35;;;3.42;;
72273;SDS011;60208;48.692;8.948;2022-11-15T08:16:52;5.32;;;3.30;;
72273;SDS011;60208;48.692;8.948;2022-11-15T08:19:17;6.68;;;3.28;;
72273;SDS011;60208;48.692;8.948;2022-11-15T08:21:43;7.07;;;3.00;;
72273;SDS011;60208;48.692;8.948;2022-11-15T08:24:09;5.05;;;3.25;;
72273;SDS011;60208;48.692;8.948;2022-11-15T08:26:35;7.00;;;3.38;;
72273;SDS011;60208;48.692;8.948;2022-11-15T08:29:01;5.95;;;3.35;;
72273;SDS011;60208;48.692;8.948;2022-11-15T08:31:26;7.40;;;3.22;;
72273;SDS011;60208;48.692;8.948;2022-11-15T08:33:51;10.38;;;3.58;;
72273;SDS011;60208;48.692;8.948;2022-11-15T08:36:17;4.90;;;2.80;;
72273;SDS011;60208;48.692;8.948;2022-11-15T08:38:42;3.47;;;2.70;;
72273;SDS011;60208;48.692;8.948;2022-11-15T08:41:13;3.88;;;2.70;;
72273;SDS011;60208;48.692;8.948;2022-11-15T08:43:44;4.90;;;2.70;;
72273;SDS011;60208;48.692;8.948;2022-11-15T08:46:11;6.65;;;2.90;;
72273;SDS011;60208;48.692;8.948;2022-11-15T08:48:37;7.35;;;3.05;;
72273;SDS011;60208;48.692;8.948;2022-11-15T08:51:03;5.85;;;3.20;;
72273;SDS011;60208;48.692;8.948;2022-11-15T08:53:28;6.50;;;2.75;;
72273;SDS011;60208;48.692;8.948;2022-11-15T08:55:54;4.40;;;2.72;;
72273;SDS011;60208;48.692;8.948;2022-11-15T08:58:19;6.72;;;2.95;;
72273;SDS011;60208;48.692;8.948;2022-11-15T09:00:44;5.47;;;2.53;;
72273;SDS011;60208;48.692;8.948;2022-11-15T09:03:10;9.07;;;3.22;;
72273;SDS011;60208;48.692;8.948;2022-11-15T09:05:35;33.40;;;4.97;;
72273;SDS011;60208;48.692;8.948;2022-11-15T09:08:01;7.75;;;3.50;;
72273;SDS011;60208;48.692;8.948;2022-11-15T09:10:26;14.48;;;3.65;;
72273;SDS011;60208;48.692;8.948;2022-11-15T09:12:52;11.15;;;3.55;;
72273;SDS011;60208;48.692;8.948;2022-11-15T09:15:17;16.67;;;4.15;;
72273;SDS011;60208;48.692;8.948;2022-11-15T09:17:44;9.68;;;3.60;;
72273;SDS011;60208;48.692;8.948;2022-11-15T09:20:10;11.45;;;3.65;;
72273;SDS011;60208;48.692;8.948;2022-11-15T09:22:35;9.80;;;3.55;;
72273;SDS011;60208;48.692;8.948;2022-11-15T09:25:01;6.80;;;3.78;;
72273;SDS011;60208;48.692;8.948;2022-11-15T09:27:28;10.75;;;4.00;;
72273;SDS011;60208;48.692;8.948;2022-11-15T09:29:54;11.50;;;3.40;;
72273;SDS011;60208;48.692;8.948;2022-11-15T09:32:19;14.52;;;3.83;;
72273;SDS011;60208;48.692;8.948;2022-11-15T09:34:45;14.50;;;3.45;;
72273;SDS011;60208;48.692;8.948;2022-11-15T09:37:10;17.45;;;3.13;;
72273;SDS011;60208;48.692;8.948;2022-11-15T09:39:36;9.30;;;2.97;;
72273;SDS011;60208;48.692;8.948;2022-11-15T09:44:52;10.35;;;3.00;;
72273;SDS011;60208;48.692;8.948;2022-11-15T09:47:49;8.85;;;3.08;;
72273;SDS011;60208;48.692;8.948;2022-11-15T09:50:34;28.45;;;4.68;;
72273;SDS011;60208;48.692;8.948;2022-11-15T09:53:03;8.40;;;3.10;;
72273;SDS011;60208;48.692;8.948;2022-11-15T09:55:32;5.78;;;2.60;;
72273;SDS011;60208;48.692;8.948;2022-11-15T09:58:46;12.45;;;3.03;;
72273;SDS011;60208;48.692;8.948;2022-11-15T10:00:54;4.43;;;2.50;;
72273;SDS011;60208;48.692;8.948;2022-11-15T10:05:50;4.47;;;2.88;;
72273;SDS011;60208;48.692;8.948;2022-11-15T10:08:22;11.52;;;4.03;;
72273;SDS011;60208;48.692;8.948;2022-11-15T10:11:09;8.75;;;3.58;;
72273;SDS011;60208;48.692;8.948;2022-11-15T10:13:36;12.90;;;3.95;;
72273;SDS011;60208;48.692;8.948;2022-11-15T10:24:12;18.92;;;3.65;;
72273;SDS011;60208;48.692;8.948;2022-11-15T10:26:38;6.75;;;3.03;;
72273;SDS011;60208;48.692;8.948;2022-11-15T10:29:10;10.23;;;2.97;;
72273;SDS011;60208;48.692;8.948;2022-11-15T10:31:37;15.70;;;3.70;;
72273;SDS011;60208;48.692;8.948;2022-11-15T10:34:18;5.70;;;2.40;;
72273;SDS011;60208;48.692;8.948;2022-11-15T10:36:57;10.38;;;3.38;;
72273;SDS011;60208;48.692;8.948;2022-11-15T10:39:24;3.63;;;2.20;;
72273;SDS011;60208;48.692;8.948;2022-11-15T10:41:50;8.43;;;3.10;;
72273;SDS011;60208;48.692;8.948;2022-11-15T10:46:47;7.40;;;2.45;;
72273;SDS011;60208;48.692;8.948;2022-11-15T10:49:23;7.03;;;2.47;;
72273;SDS011;60208;48.692;8.948;2022-11-15T10:54:33;7.13;;;3.13;;
72273;SDS011;60208;48.692;8.948;2022-11-15T10:57:05;4.90;;;2.25;;
72273;SDS011;60208;48.692;8.948;2022-11-15T10:59:32;16.30;;;3.08;;
72273;SDS011;60208;48.692;8.948;2022-11-15T11:02:00;11.00;;;2.40;;
72273;SDS011;60208;48.692;8.948;2022-11-15T11:04:25;6.18;;;2.25;;
72273;SDS011;60208;48.692;8.948;2022-11-15T11:12:02;4.15;;;1.98;;
72273;SDS011;60208;48.692;8.948;2022-11-15T11:14:30;4.70;;;2.28;;
72273;SDS011;60208;48.692;8.948;2022-11-15T11:33:33;7.40;;;2.00;;
72273;SDS011;60208;48.692;8.948;2022-11-15T11:38:50;3.45;;;2.22;;
72273;SDS011;60208;48.692;8.948;2022-11-15T11:52:25;8.27;;;3.10;;
72273;SDS011;60208;48.692;8.948;2022-11-15T12:00:47;4.60;;;2.55;;
72273;SDS011;60208;48.692;8.948;2022-11-15T12:06:01;2.45;;;2.10;;
72273;SDS011;60208;48.692;8.948;2022-11-15T12:14:01;6.90;;;2.40;;
72273;SDS011;60208;48.692;8.948;2022-11-15T12:16:29;5.53;;;2.30;;
72273;SDS011;60208;48.692;8.948;2022-11-15T12:18:58;8.90;;;2.60;;
72273;SDS011;60208;48.692;8.948;2022-11-15T12:24:16;3.88;;;2.17;;
72273;SDS011;60208;48.692;8.948;2022-11-15T12:26:49;8.27;;;2.83;;
72273;SDS011;60208;48.692;8.948;2022-11-15T12:29:23;5.45;;;2.47;;
72273;SDS011;60208;48.692;8.948;2022-11-15T12:31:57;3.25;;;2.30;;
72273;SDS011;60208;48.692;8.948;2022-11-15T12:36:53;17.08;;;4.00;;
72273;SDS011;60208;48.692;8.948;2022-11-15T12:39:19;7.90;;;2.50;;
72273;SDS011;60208;48.692;8.948;2022-11-15T12:47:03;5.85;;;2.30;;
72273;SDS011;60208;48.692;8.948;2022-11-15T12:52:04;5.97;;;2.20;;
72273;SDS011;60208;48.692;8.948;2022-11-15T13:04:46;8.48;;;2.33;;
72273;SDS011;60208;48.692;8.948;2022-11-15T13:09:59;7.18;;;2.25;;
72273;SDS011;60208;48.692;8.948;2022-11-15T13:14:53;4.07;;;2.25;;
72273;SDS011;60208;48.692;8.948;2022-11-15T13:19:52;5.50;;;2.22;;
72273;SDS011;60208;48.692;8.948;2022-11-15T13:22:22;4.47;;;1.98;;
72273;SDS011;60208;48.692;8.948;2022-11-15T13:25:14;8.07;;;2.35;;
72273;SDS011;60208;48.692;8.948;2022-11-15T13:27:44;5.82;;;2.00;;
72273;SDS011;60208;48.692;8.948;2022-11-15T13:30:29;2.83;;;2.30;;
72273;SDS011;60208;48.692;8.948;2022-11-15T13:32:55;3.95;;;2.20;;
72273;SDS011;60208;48.692;8.948;2022-11-15T13:35:23;3.55;;;2.15;;
72273;SDS011;60208;48.692;8.948;2022-11-15T13:37:50;3.45;;;2.05;;
72273;SDS011;60208;48.692;8.948;2022-11-15T13:42:53;4.00;;;2.00;;
72273;SDS011;60208;48.692;8.948;2022-11-15T13:45:21;4.10;;;2.33;;
72273;SDS011;60208;48.692;8.948;2022-11-15T13:48:07;4.70;;;2.10;;
72273;SDS011;60208;48.692;8.948;2022-11-15T13:50:48;2.85;;;1.98;;
72273;SDS011;60208;48.692;8.948;2022-11-15T13:53:20;6.82;;;2.38;;
72273;SDS011;60208;48.692;8.948;2022-11-15T14:02:21;2.80;;;1.83;;
72273;SDS011;60208;48.692;8.948;2022-11-15T14:04:51;5.00;;;2.10;;
72273;SDS011;60208;48.692;8.948;2022-11-15T14:07:23;4.85;;;2.60;;
72273;SDS011;60208;48.692;8.948;2022-11-15T14:09:50;4.20;;;2.40;;
72273;SDS011;60208;48.692;8.948;2022-11-15T14:14:51;4.15;;;2.53;;
72273;SDS011;60208;48.692;8.948;2022-11-15T14:17:35;4.70;;;2.80;;
72273;SDS011;60208;48.692;8.948;2022-11-15T14:20:02;4.60;;;1.98;;
72273;SDS011;60208;48.692;8.948;2022-11-15T14:22:29;3.60;;;2.05;;
72273;SDS011;60208;48.692;8.948;2022-11-15T14:27:39;3.25;;;2.22;;
72273;SDS011;60208;48.692;8.948;2022-11-15T14:30:05;5.07;;;2.38;;
72273;SDS011;60208;48.692;8.948;2022-11-15T14:32:47;3.55;;;2.13;;
72273;SDS011;60208;48.692;8.948;2022-11-15T14:35:15;7.60;;;2.30;;
72273;SDS011;60208;48.692;8.948;2022-11-15T14:37:42;4.22;;;2.30;;
72273;SDS011;60208;48.692;8.948;2022-11-15T14:40:08;4.28;;;2.80;;
72273;SDS011;60208;48.692;8.948;2022-11-15T14:42:38;8.27;;;4.20;;
72273;SDS011;60208;48.692;8.948;2022-11-15T14:45:09;14.63;;;7.93;;
72273;SDS011;60208;48.692;8.948;2022-11-15T14:47:38;12.35;;;6.43;;
72273;SDS011;60208;48.692;8.948;2022-11-15T14:50:03;8.45;;;4.57;;
72273;SDS011;60208;48.692;8.948;2022-11-15T14:52:30;8.18;;;4.75;;
72273;SDS011;60208;48.692;8.948;2022-11-15T14:54:59;7.22;;;4.80;;
72273;SDS011;60208;48.692;8.948;2022-11-15T14:57:27;7.28;;;4.60;;
72273;SDS011;60208;48.692;8.948;2022-11-15T14:59:52;7.60;;;3.10;;
72273;SDS011;60208;48.692;8.948;2022-11-15T15:02:22;5.80;;;3.10;;
72273;SDS011;60208;48.692;8.948;2022-11-15T15:04:49;3.83;;;3.08;;
72273;SDS011;60208;48.692;8.948;2022-11-15T15:07:14;4.90;;;3.00;;
72273;SDS011;60208;48.692;8.948;2022-11-15T15:09:40;5.47;;;3.25;;
72273;SDS011;60208;48.692;8.948;2022-11-15T15:12:16;4.25;;;2.65;;
72273;SDS011;60208;48.692;8.948;2022-11-15T15:14:42;3.33;;;2.50;;
72273;SDS011;60208;48.692;8.948;2022-11-15T15:17:08;4.75;;;2.38;;
72273;SDS011;60208;48.692;8.948;2022-11-15T15:19:33;5.55;;;2.50;;
72273;SDS011;60208;48.692;8.948;2022-11-15T15:21:59;4.47;;;2.50;;
72273;SDS011;60208;48.692;8.948;2022-11-15T15:24:24;3.25;;;2.58;;
72273;SDS011;60208;48.692;8.948;2022-11-15T15:26:49;5.45;;;2.60;;
72273;SDS011;60208;48.692;8.948;2022-11-15T15:29:15;9.10;;;5.78;;
72273;SDS011;60208;48.692;8.948;2022-11-15T15:31:40;4.13;;;3.10;;
72273;SDS011;60208;48.692;8.948;2022-11-15T15:34:06;6.75;;;3.78;;
72273;SDS011;60208;48.692;8.948;2022-11-15T15:36:34;9.50;;;5.10;;
72273;SDS011;60208;48.692;8.948;2022-11-15T15:39:00;13.27;;;6.60;;
72273;SDS011;60208;48.692;8.948;2022-11-15T15:41:25;11.98;;;6.95;;
72273;SDS011;60208;48.692;8.948;2022-11-15T15:43:51;15.98;;;8.15;;
72273;SDS011;60208;48.692;8.948;2022-11-15T15:46:17;14.07;;;7.28;;
72273;SDS011;60208;48.692;8.948;2022-11-15T15:48:43;10.55;;;5.95;;
72273;SDS011;60208;48.692;8.948;2022-11-15T15:51:09;6.88;;;4.68;;
72273;SDS011;60208;48.692;8.948;2022-11-15T15:53:34;5.88;;;3.03;;
72273;SDS011;60208;48.692;8.948;2022-11-15T15:56:00;5.20;;;3.28;;
72273;SDS011;60208;48.692;8.948;2022-11-15T15:58:25;4.72;;;3.03;;
72273;SDS011;60208;48.692;8.948;2022-11-15T16:00:51;7.25;;;4.38;;
72273;SDS011;60208;48.692;8.948;2022-11-15T16:03:16;9.63;;;4.40;;
72273;SDS011;60208;48.692;8.948;2022-11-15T16:05:42;10.73;;;4.50;;
72273;SDS011;60208;48.692;8.948;2022-11-15T16:08:40;7.15;;;3.80;;
72273;SDS011;60208;48.692;8.948;2022-11-15T16:10:59;7.93;;;4.00;;
72273;SDS011;60208;48.692;8.948;2022-11-15T16:13:25;7.53;;;4.18;;
72273;SDS011;60208;48.692;8.948;2022-11-15T16:15:51;10.23;;;3.75;;
72273;SDS011;60208;48.692;8.948;2022-11-15T16:18:17;10.13;;;4.00;;
72273;SDS011;60208;48.692;8.948;2022-11-15T16:20:43;7.35;;;4.38;;
72273;SDS011;60208;48.692;8.948;2022-11-15T16:23:11;15.93;;;7.25;;
72273;SDS011;60208;48.692;8.948;2022-11-15T16:28:17;14.43;;;5.30;;
72273;SDS011;60208;48.692;8.948;2022-11-15T16:30:42;11.23;;;4.47;;
72273;SDS011;60208;48.692;8.948;2022-11-15T16:33:07;13.73;;;5.93;;
72273;SDS011;60208;48.692;8.948;2022-11-15T16:35:33;9.38;;;4.60;;
72273;SDS011;60208;48.692;8.948;2022-11-15T16:37:58;7.95;;;3.90;;
72273;SDS011;60208;48.692;8.948;2022-11-15T16:40:28;7.13;;;3.70;;
72273;SDS011;60208;48.692;8.948;2022-11-15T16:42:56;11.23;;;4.47;;
72273;SDS011;60208;48.692;8.948;2022-11-15T16:45:22;9.30;;;4.22;;
72273;SDS011;60208;48.692;8.948;2022-11-15T16:47:48;11.85;;;5.50;;
72273;SDS011;60208;48.692;8.948;2022-11-15T16:50:23;6.22;;;4.13;;
72273;SDS011;60208;48.692;8.948;2022-11-15T16:52:51;15.43;;;6.47;;
72273;SDS011;60208;48.692;8.948;2022-11-15T16:55:17;14.23;;;5.78;;
72273;SDS011;60208;48.692;8.948;2022-11-15T16:57:43;37.55;;;7.32;;
72273;SDS011;60208;48.692;8.948;2022-11-15T17:00:10;28.20;;;7.25;;
72273;SDS011;60208;48.692;8.948;2022-11-15T17:02:36;34.65;;;9.27;;
72273;SDS011;60208;48.692;8.948;2022-11-15T17:05:01;23.75;;;8.43;;
72273;SDS011;60208;48.692;8.948;2022-11-15T17:07:26;12.73;;;6.35;;
72273;SDS011;60208;48.692;8.948;2022-11-15T17:09:52;15.57;;;6.53;;
72273;SDS011;60208;48.692;8.948;2022-11-15T17:12:17;15.23;;;6.07;;
72273;SDS011;60208;48.692;8.948;2022-11-15T17:14:43;28.48;;;6.30;;
72273;SDS011;60208;48.692;8.948;2022-11-15T17:17:10;12.98;;;6.47;;
72273;SDS011;60208;48.692;8.948;2022-11-15T17:19:35;6.20;;;4.43;;